sensor_id;sensor_type;location;lat;lon;timestamp;P1;durP1;ratioP1;P2;durP2;ratioP2
60464;SDS011;46314;52.392;9.758;2023-06-14T00:00:27;5.13;;;3.42;;
60464;SDS011;46314;52.392;9.758;2023-06-14T00:02:54;4.90;;;3.60;;
60464;SDS011;46314;52.392;9.758;2023-06-14T00:05:20;4.13;;;3.33;;
60464;SDS011;46314;52.392;9.758;2023-06-14T00:07:47;4.25;;;3.53;;
60464;SDS011;46314;52.392;9.758;2023-06-14T00:10:13;6.13;;;3.47;;
60464;SDS011;46314;52.392;9.758;2023-06-14T00:12:42;5.80;;;3.38;;
60464;SDS011;46314;52.392;9.758;2023-06-14T00:15:09;6.65;;;3.33;;
60464;SDS011;46314;52.392;9.758;2023-06-14T00:17:36;6.40;;;3.53;;
60464;SDS011;46314;52.392;9.758;2023-06-14T00:20:03;3.85;;;3.45;;
60464;SDS011;46314;52.392;9.758;2023-06-14T00:22:30;8.05;;;4.05;;
60464;SDS011;46314;52.392;9.758;2023-06-14T00:24:57;5.38;;;3.50;;
60464;SDS011;46314;52.392;9.758;2023-06-14T00:27:23;7.00;;;3.05;;
60464;SDS011;46314;52.392;9.758;2023-06-14T00:29:51;4.65;;;3.20;;
60464;SDS011;46314;52.392;9.758;2023-06-14T00:32:18;11.90;;;3.90;;
60464;SDS011;46314;52.392;9.758;2023-06-14T00:34:44;8.13;;;3.60;;
60464;SDS011;46314;52.392;9.758;2023-06-14T00:37:11;8.02;;;3.88;;
60464;SDS011;46314;52.392;9.758;2023-06-14T00:39:37;4.20;;;3.58;;
60464;SDS011;46314;52.392;9.758;2023-06-14T00:42:04;4.28;;;3.40;;
60464;SDS011;46314;52.392;9.758;2023-06-14T00:44:31;4.78;;;3.22;;
60464;SDS011;46314;52.392;9.758;2023-06-14T00:46:59;9.35;;;4.03;;
60464;SDS011;46314;52.392;9.758;2023-06-14T00:49:26;5.95;;;3.22;;
60464;SDS011;46314;52.392;9.758;2023-06-14T00:51:55;5.88;;;3.00;;
60464;SDS011;46314;52.392;9.758;2023-06-14T00:54:21;5.85;;;3.53;;
60464;SDS011;46314;52.392;9.758;2023-06-14T00:56:48;6.10;;;3.33;;
60464;SDS011;46314;52.392;9.758;2023-06-14T00:59:14;5.93;;;3.70;;
60464;SDS011;46314;52.392;9.758;2023-06-14T01:01:41;6.72;;;3.00;;
60464;SDS011;46314;52.392;9.758;2023-06-14T01:04:09;4.40;;;3.20;;
60464;SDS011;46314;52.392;9.758;2023-06-14T01:06:38;4.78;;;3.05;;
60464;SDS011;46314;52.392;9.758;2023-06-14T01:09:17;3.60;;;3.30;;
60464;SDS011;46314;52.392;9.758;2023-06-14T01:11:53;8.07;;;3.35;;
60464;SDS011;46314;52.392;9.758;2023-06-14T01:14:25;3.80;;;3.40;;
60464;SDS011;46314;52.392;9.758;2023-06-14T01:16:53;3.58;;;3.28;;
60464;SDS011;46314;52.392;9.758;2023-06-14T01:19:22;6.00;;;3.70;;
60464;SDS011;46314;52.392;9.758;2023-06-14T01:21:50;5.38;;;3.53;;
60464;SDS011;46314;52.392;9.758;2023-06-14T01:24:17;5.03;;;3.15;;
60464;SDS011;46314;52.392;9.758;2023-06-14T01:26:44;5.53;;;3.83;;
60464;SDS011;46314;52.392;9.758;2023-06-14T01:29:11;4.28;;;2.72;;
60464;SDS011;46314;52.392;9.758;2023-06-14T01:31:40;4.25;;;3.35;;
60464;SDS011;46314;52.392;9.758;2023-06-14T01:34:07;5.20;;;3.53;;
60464;SDS011;46314;52.392;9.758;2023-06-14T01:36:33;3.50;;;3.17;;
60464;SDS011;46314;52.392;9.758;2023-06-14T01:39:02;3.75;;;3.10;;
60464;SDS011;46314;52.392;9.758;2023-06-14T01:41:32;8.15;;;3.75;;
60464;SDS011;46314;52.392;9.758;2023-06-14T01:44:01;4.70;;;3.20;;
60464;SDS011;46314;52.392;9.758;2023-06-14T01:46:28;4.47;;;3.08;;
60464;SDS011;46314;52.392;9.758;2023-06-14T01:48:54;6.07;;;2.78;;
60464;SDS011;46314;52.392;9.758;2023-06-14T01:51:21;5.57;;;3.42;;
60464;SDS011;46314;52.392;9.758;2023-06-14T01:53:48;5.15;;;3.30;;
60464;SDS011;46314;52.392;9.758;2023-06-14T01:56:14;3.38;;;3.08;;
60464;SDS011;46314;52.392;9.758;2023-06-14T01:58:42;4.43;;;3.22;;
60464;SDS011;46314;52.392;9.758;2023-06-14T02:01:08;4.95;;;2.90;;
60464;SDS011;46314;52.392;9.758;2023-06-14T02:03:35;4.70;;;3.67;;
60464;SDS011;46314;52.392;9.758;2023-06-14T02:06:01;4.45;;;2.85;;
60464;SDS011;46314;52.392;9.758;2023-06-14T02:08:28;7.47;;;3.17;;
60464;SDS011;46314;52.392;9.758;2023-06-14T02:10:54;4.22;;;3.38;;
60464;SDS011;46314;52.392;9.758;2023-06-14T02:13:21;5.38;;;3.00;;
60464;SDS011;46314;52.392;9.758;2023-06-14T02:15:49;5.95;;;3.17;;
60464;SDS011;46314;52.392;9.758;2023-06-14T02:18:15;4.50;;;3.15;;
60464;SDS011;46314;52.392;9.758;2023-06-14T02:20:41;4.32;;;3.05;;
60464;SDS011;46314;52.392;9.758;2023-06-14T02:23:08;8.75;;;3.20;;
60464;SDS011;46314;52.392;9.758;2023-06-14T02:25:34;9.45;;;3.17;;
60464;SDS011;46314;52.392;9.758;2023-06-14T02:28:01;4.90;;;3.15;;
60464;SDS011;46314;52.392;9.758;2023-06-14T02:30:28;4.07;;;2.65;;
60464;SDS011;46314;52.392;9.758;2023-06-14T02:32:56;5.40;;;3.38;;
60464;SDS011;46314;52.392;9.758;2023-06-14T02:35:22;5.50;;;3.50;;
60464;SDS011;46314;52.392;9.758;2023-06-14T02:37:49;5.70;;;3.30;;
60464;SDS011;46314;52.392;9.758;2023-06-14T02:40:15;3.05;;;2.63;;
60464;SDS011;46314;52.392;9.758;2023-06-14T02:42:42;5.00;;;3.30;;
60464;SDS011;46314;52.392;9.758;2023-06-14T02:45:09;4.95;;;2.90;;
60464;SDS011;46314;52.392;9.758;2023-06-14T02:47:35;4.40;;;3.10;;
60464;SDS011;46314;52.392;9.758;2023-06-14T02:50:04;3.97;;;3.15;;
60464;SDS011;46314;52.392;9.758;2023-06-14T02:52:31;4.72;;;3.00;;
60464;SDS011;46314;52.392;9.758;2023-06-14T02:54:58;3.33;;;2.80;;
60464;SDS011;46314;52.392;9.758;2023-06-14T02:57:24;4.72;;;2.90;;
60464;SDS011;46314;52.392;9.758;2023-06-14T02:59:51;3.63;;;3.25;;
60464;SDS011;46314;52.392;9.758;2023-06-14T03:02:17;6.32;;;3.28;;
60464;SDS011;46314;52.392;9.758;2023-06-14T03:04:43;6.13;;;3.00;;
60464;SDS011;46314;52.392;9.758;2023-06-14T03:07:11;5.10;;;3.03;;
60464;SDS011;46314;52.392;9.758;2023-06-14T03:09:38;4.63;;;3.10;;
60464;SDS011;46314;52.392;9.758;2023-06-14T03:12:05;4.38;;;3.10;;
60464;SDS011;46314;52.392;9.758;2023-06-14T03:14:32;4.57;;;3.42;;
60464;SDS011;46314;52.392;9.758;2023-06-14T03:16:59;3.95;;;3.55;;
60464;SDS011;46314;52.392;9.758;2023-06-14T03:19:25;4.05;;;3.20;;
60464;SDS011;46314;52.392;9.758;2023-06-14T03:21:52;3.97;;;3.25;;
60464;SDS011;46314;52.392;9.758;2023-06-14T03:24:20;5.88;;;3.45;;
60464;SDS011;46314;52.392;9.758;2023-06-14T03:26:46;6.00;;;3.22;;
60464;SDS011;46314;52.392;9.758;2023-06-14T03:29:13;4.88;;;3.15;;
60464;SDS011;46314;52.392;9.758;2023-06-14T03:31:41;3.72;;;2.90;;
60464;SDS011;46314;52.392;9.758;2023-06-14T03:34:22;4.35;;;3.00;;
60464;SDS011;46314;52.392;9.758;2023-06-14T03:36:49;5.05;;;3.58;;
60464;SDS011;46314;52.392;9.758;2023-06-14T03:39:15;7.50;;;3.35;;
60464;SDS011;46314;52.392;9.758;2023-06-14T03:41:43;5.20;;;3.35;;
60464;SDS011;46314;52.392;9.758;2023-06-14T03:44:09;4.55;;;2.80;;
60464;SDS011;46314;52.392;9.758;2023-06-14T03:46:36;4.97;;;3.50;;
60464;SDS011;46314;52.392;9.758;2023-06-14T03:49:02;7.57;;;3.65;;
60464;SDS011;46314;52.392;9.758;2023-06-14T03:51:29;4.40;;;3.40;;
60464;SDS011;46314;52.392;9.758;2023-06-14T03:53:55;4.72;;;3.20;;
60464;SDS011;46314;52.392;9.758;2023-06-14T03:56:43;6.03;;;3.10;;
60464;SDS011;46314;52.392;9.758;2023-06-14T03:59:10;4.00;;;3.10;;
60464;SDS011;46314;52.392;9.758;2023-06-14T04:01:36;6.28;;;3.50;;
60464;SDS011;46314;52.392;9.758;2023-06-14T04:04:03;4.38;;;3.13;;
60464;SDS011;46314;52.392;9.758;2023-06-14T04:06:29;5.25;;;3.35;;
60464;SDS011;46314;52.392;9.758;2023-06-14T04:08:56;6.55;;;3.28;;
60464;SDS011;46314;52.392;9.758;2023-06-14T04:11:22;6.82;;;3.45;;
60464;SDS011;46314;52.392;9.758;2023-06-14T04:13:50;4.95;;;3.17;;
60464;SDS011;46314;52.392;9.758;2023-06-14T04:16:16;3.20;;;2.90;;
60464;SDS011;46314;52.392;9.758;2023-06-14T04:18:43;4.68;;;2.95;;
60464;SDS011;46314;52.392;9.758;2023-06-14T04:21:09;6.88;;;3.10;;
60464;SDS011;46314;52.392;9.758;2023-06-14T04:23:36;7.18;;;3.45;;
60464;SDS011;46314;52.392;9.758;2023-06-14T04:26:02;4.78;;;3.17;;
60464;SDS011;46314;52.392;9.758;2023-06-14T04:28:29;6.35;;;4.10;;
60464;SDS011;46314;52.392;9.758;2023-06-14T04:30:57;4.68;;;3.00;;
60464;SDS011;46314;52.392;9.758;2023-06-14T04:33:24;6.15;;;3.15;;
60464;SDS011;46314;52.392;9.758;2023-06-14T04:35:50;5.40;;;3.55;;
60464;SDS011;46314;52.392;9.758;2023-06-14T04:38:17;3.80;;;2.92;;
60464;SDS011;46314;52.392;9.758;2023-06-14T04:40:44;3.15;;;2.80;;
60464;SDS011;46314;52.392;9.758;2023-06-14T04:43:10;4.57;;;3.72;;
60464;SDS011;46314;52.392;9.758;2023-06-14T04:45:37;5.15;;;3.22;;
60464;SDS011;46314;52.392;9.758;2023-06-14T04:48:05;5.30;;;3.08;;
60464;SDS011;46314;52.392;9.758;2023-06-14T04:50:31;5.82;;;3.30;;
60464;SDS011;46314;52.392;9.758;2023-06-14T04:52:58;4.63;;;2.88;;
60464;SDS011;46314;52.392;9.758;2023-06-14T04:55:25;5.05;;;2.80;;
60464;SDS011;46314;52.392;9.758;2023-06-14T04:57:52;6.30;;;3.47;;
60464;SDS011;46314;52.392;9.758;2023-06-14T05:00:19;3.85;;;2.72;;
60464;SDS011;46314;52.392;9.758;2023-06-14T05:02:46;6.15;;;3.08;;
60464;SDS011;46314;52.392;9.758;2023-06-14T05:05:14;7.65;;;3.95;;
60464;SDS011;46314;52.392;9.758;2023-06-14T05:07:41;3.75;;;2.30;;
60464;SDS011;46314;52.392;9.758;2023-06-14T05:10:08;3.33;;;2.80;;
60464;SDS011;46314;52.392;9.758;2023-06-14T05:12:34;4.43;;;2.63;;
60464;SDS011;46314;52.392;9.758;2023-06-14T05:15:02;5.80;;;3.17;;
60464;SDS011;46314;52.392;9.758;2023-06-14T05:17:29;4.65;;;2.83;;
60464;SDS011;46314;52.392;9.758;2023-06-14T05:19:56;3.25;;;2.80;;
60464;SDS011;46314;52.392;9.758;2023-06-14T05:22:24;4.40;;;3.13;;
60464;SDS011;46314;52.392;9.758;2023-06-14T05:24:51;6.25;;;2.83;;
60464;SDS011;46314;52.392;9.758;2023-06-14T05:27:17;3.28;;;2.72;;
60464;SDS011;46314;52.392;9.758;2023-06-14T05:29:44;4.35;;;2.70;;
60464;SDS011;46314;52.392;9.758;2023-06-14T05:32:10;4.10;;;2.67;;
60464;SDS011;46314;52.392;9.758;2023-06-14T05:34:37;6.18;;;2.80;;
60464;SDS011;46314;52.392;9.758;2023-06-14T05:37:03;3.45;;;2.70;;
60464;SDS011;46314;52.392;9.758;2023-06-14T05:39:31;4.85;;;3.10;;
60464;SDS011;46314;52.392;9.758;2023-06-14T05:41:58;3.17;;;2.45;;
60464;SDS011;46314;52.392;9.758;2023-06-14T05:44:25;7.68;;;2.70;;
60464;SDS011;46314;52.392;9.758;2023-06-14T05:46:51;4.03;;;2.92;;
60464;SDS011;46314;52.392;9.758;2023-06-14T05:49:18;3.78;;;2.33;;
60464;SDS011;46314;52.392;9.758;2023-06-14T05:51:44;5.68;;;2.75;;
60464;SDS011;46314;52.392;9.758;2023-06-14T05:54:10;7.28;;;3.03;;
60464;SDS011;46314;52.392;9.758;2023-06-14T05:56:38;3.17;;;2.45;;
60464;SDS011;46314;52.392;9.758;2023-06-14T05:59:05;4.15;;;2.85;;
60464;SDS011;46314;52.392;9.758;2023-06-14T06:01:31;4.00;;;2.80;;
60464;SDS011;46314;52.392;9.758;2023-06-14T06:03:58;3.65;;;2.58;;
60464;SDS011;46314;52.392;9.758;2023-06-14T06:06:24;2.85;;;2.65;;
60464;SDS011;46314;52.392;9.758;2023-06-14T06:08:51;3.67;;;2.33;;
60464;SDS011;46314;52.392;9.758;2023-06-14T06:11:17;4.00;;;2.97;;
60464;SDS011;46314;52.392;9.758;2023-06-14T06:13:45;3.20;;;2.40;;
60464;SDS011;46314;52.392;9.758;2023-06-14T06:16:12;3.03;;;2.78;;
60464;SDS011;46314;52.392;9.758;2023-06-14T06:18:39;4.05;;;3.13;;
60464;SDS011;46314;52.392;9.758;2023-06-14T06:21:06;3.60;;;3.17;;
60464;SDS011;46314;52.392;9.758;2023-06-14T06:23:33;5.28;;;3.05;;
60464;SDS011;46314;52.392;9.758;2023-06-14T06:25:59;4.75;;;2.42;;
60464;SDS011;46314;52.392;9.758;2023-06-14T06:28:26;4.20;;;2.67;;
60464;SDS011;46314;52.392;9.758;2023-06-14T06:30:53;4.43;;;2.42;;
60464;SDS011;46314;52.392;9.758;2023-06-14T06:33:20;4.40;;;3.10;;
60464;SDS011;46314;52.392;9.758;2023-06-14T06:35:47;4.75;;;2.95;;
60464;SDS011;46314;52.392;9.758;2023-06-14T06:38:13;3.95;;;2.95;;
60464;SDS011;46314;52.392;9.758;2023-06-14T06:40:40;3.50;;;2.88;;
60464;SDS011;46314;52.392;9.758;2023-06-14T06:43:06;3.22;;;2.92;;
60464;SDS011;46314;52.392;9.758;2023-06-14T06:45:33;3.97;;;2.55;;
60464;SDS011;46314;52.392;9.758;2023-06-14T06:48:00;3.28;;;2.75;;
60464;SDS011;46314;52.392;9.758;2023-06-14T06:50:27;3.67;;;3.00;;
60464;SDS011;46314;52.392;9.758;2023-06-14T06:52:54;4.75;;;3.35;;
60464;SDS011;46314;52.392;9.758;2023-06-14T06:55:20;3.70;;;2.60;;
60464;SDS011;46314;52.392;9.758;2023-06-14T06:57:47;4.45;;;3.17;;
60464;SDS011;46314;52.392;9.758;2023-06-14T07:00:13;3.70;;;2.65;;
60464;SDS011;46314;52.392;9.758;2023-06-14T07:02:41;3.40;;;2.60;;
60464;SDS011;46314;52.392;9.758;2023-06-14T07:05:09;3.80;;;2.30;;
60464;SDS011;46314;52.392;9.758;2023-06-14T07:07:35;4.07;;;2.80;;
60464;SDS011;46314;52.392;9.758;2023-06-14T07:10:02;4.38;;;2.53;;
60464;SDS011;46314;52.392;9.758;2023-06-14T07:12:28;2.78;;;2.30;;
60464;SDS011;46314;52.392;9.758;2023-06-14T07:14:55;3.30;;;2.42;;
60464;SDS011;46314;52.392;9.758;2023-06-14T07:17:23;3.92;;;2.25;;
60464;SDS011;46314;52.392;9.758;2023-06-14T07:19:50;3.35;;;2.38;;
60464;SDS011;46314;52.392;9.758;2023-06-14T07:22:18;3.08;;;2.20;;
60464;SDS011;46314;52.392;9.758;2023-06-14T07:24:44;4.03;;;2.35;;
60464;SDS011;46314;52.392;9.758;2023-06-14T07:27:11;5.43;;;2.80;;
60464;SDS011;46314;52.392;9.758;2023-06-14T07:29:40;3.45;;;2.42;;
60464;SDS011;46314;52.392;9.758;2023-06-14T07:32:07;4.80;;;2.55;;
60464;SDS011;46314;52.392;9.758;2023-06-14T07:34:33;2.75;;;1.90;;
60464;SDS011;46314;52.392;9.758;2023-06-14T07:37:00;2.47;;;2.28;;
60464;SDS011;46314;52.392;9.758;2023-06-14T07:39:27;3.92;;;2.10;;
60464;SDS011;46314;52.392;9.758;2023-06-14T07:41:54;3.25;;;2.20;;
60464;SDS011;46314;52.392;9.758;2023-06-14T07:44:20;2.70;;;2.50;;
60464;SDS011;46314;52.392;9.758;2023-06-14T07:46:47;3.95;;;2.85;;
60464;SDS011;46314;52.392;9.758;2023-06-14T07:49:13;4.53;;;2.30;;
60464;SDS011;46314;52.392;9.758;2023-06-14T07:51:40;4.03;;;2.45;;
60464;SDS011;46314;52.392;9.758;2023-06-14T07:54:06;3.42;;;2.17;;
60464;SDS011;46314;52.392;9.758;2023-06-14T07:56:34;2.72;;;2.25;;
60464;SDS011;46314;52.392;9.758;2023-06-14T07:59:01;3.40;;;2.50;;
60464;SDS011;46314;52.392;9.758;2023-06-14T08:01:27;3.80;;;2.65;;
60464;SDS011;46314;52.392;9.758;2023-06-14T08:03:54;3.55;;;2.58;;
60464;SDS011;46314;52.392;9.758;2023-06-14T08:06:20;2.50;;;2.30;;
60464;SDS011;46314;52.392;9.758;2023-06-14T08:08:47;2.78;;;2.42;;
60464;SDS011;46314;52.392;9.758;2023-06-14T08:11:14;3.22;;;2.72;;
60464;SDS011;46314;52.392;9.758;2023-06-14T08:13:41;3.63;;;2.30;;
60464;SDS011;46314;52.392;9.758;2023-06-14T08:16:08;7.07;;;2.55;;
60464;SDS011;46314;52.392;9.758;2023-06-14T08:18:34;3.83;;;2.05;;
60464;SDS011;46314;52.392;9.758;2023-06-14T08:21:01;4.30;;;2.75;;
60464;SDS011;46314;52.392;9.758;2023-06-14T08:23:27;3.20;;;2.78;;
60464;SDS011;46314;52.392;9.758;2023-06-14T08:25:54;3.90;;;2.50;;
60464;SDS011;46314;52.392;9.758;2023-06-14T08:28:21;4.47;;;2.50;;
60464;SDS011;46314;52.392;9.758;2023-06-14T08:30:48;2.80;;;2.30;;
60464;SDS011;46314;52.392;9.758;2023-06-14T08:33:15;3.95;;;3.20;;
60464;SDS011;46314;52.392;9.758;2023-06-14T08:35:43;5.22;;;2.60;;
60464;SDS011;46314;52.392;9.758;2023-06-14T08:38:10;7.00;;;2.88;;
60464;SDS011;46314;52.392;9.758;2023-06-14T08:40:37;6.03;;;2.90;;
60464;SDS011;46314;52.392;9.758;2023-06-14T08:43:04;3.28;;;2.50;;
60464;SDS011;46314;52.392;9.758;2023-06-14T08:45:30;5.90;;;2.60;;
60464;SDS011;46314;52.392;9.758;2023-06-14T08:47:59;4.80;;;2.58;;
60464;SDS011;46314;52.392;9.758;2023-06-14T08:50:27;4.20;;;2.35;;
60464;SDS011;46314;52.392;9.758;2023-06-14T08:52:55;2.97;;;2.67;;
60464;SDS011;46314;52.392;9.758;2023-06-14T08:55:23;4.47;;;2.70;;
60464;SDS011;46314;52.392;9.758;2023-06-14T08:57:50;3.53;;;2.58;;
60464;SDS011;46314;52.392;9.758;2023-06-14T09:00:17;3.08;;;2.35;;
60464;SDS011;46314;52.392;9.758;2023-06-14T09:02:45;3.22;;;2.30;;
60464;SDS011;46314;52.392;9.758;2023-06-14T09:05:13;3.35;;;2.50;;
60464;SDS011;46314;52.392;9.758;2023-06-14T09:07:40;4.18;;;2.30;;
60464;SDS011;46314;52.392;9.758;2023-06-14T09:10:07;2.53;;;2.25;;
60464;SDS011;46314;52.392;9.758;2023-06-14T09:12:34;3.88;;;2.80;;
60464;SDS011;46314;52.392;9.758;2023-06-14T09:15:00;5.20;;;2.53;;
60464;SDS011;46314;52.392;9.758;2023-06-14T09:17:27;2.80;;;2.15;;
60464;SDS011;46314;52.392;9.758;2023-06-14T09:19:54;4.47;;;3.10;;
60464;SDS011;46314;52.392;9.758;2023-06-14T09:22:23;4.10;;;2.50;;
60464;SDS011;46314;52.392;9.758;2023-06-14T09:24:49;3.08;;;2.42;;
60464;SDS011;46314;52.392;9.758;2023-06-14T09:27:16;2.90;;;2.15;;
60464;SDS011;46314;52.392;9.758;2023-06-14T09:29:42;4.70;;;2.33;;
60464;SDS011;46314;52.392;9.758;2023-06-14T09:32:09;5.35;;;2.70;;
60464;SDS011;46314;52.392;9.758;2023-06-14T09:34:35;3.10;;;2.55;;
60464;SDS011;46314;52.392;9.758;2023-06-14T09:37:02;5.95;;;2.42;;
60464;SDS011;46314;52.392;9.758;2023-06-14T09:39:30;2.63;;;2.42;;
60464;SDS011;46314;52.392;9.758;2023-06-14T09:41:57;3.70;;;2.33;;
60464;SDS011;46314;52.392;9.758;2023-06-14T09:44:23;4.13;;;2.50;;
60464;SDS011;46314;52.392;9.758;2023-06-14T09:46:52;2.90;;;2.47;;
60464;SDS011;46314;52.392;9.758;2023-06-14T09:49:21;3.20;;;2.75;;
60464;SDS011;46314;52.392;9.758;2023-06-14T09:51:50;3.22;;;2.60;;
60464;SDS011;46314;52.392;9.758;2023-06-14T09:54:20;3.60;;;2.15;;
60464;SDS011;46314;52.392;9.758;2023-06-14T09:56:50;3.97;;;2.50;;
60464;SDS011;46314;52.392;9.758;2023-06-14T09:59:19;2.10;;;1.90;;
60464;SDS011;46314;52.392;9.758;2023-06-14T10:01:47;4.10;;;2.38;;
60464;SDS011;46314;52.392;9.758;2023-06-14T10:04:15;2.97;;;2.30;;
60464;SDS011;46314;52.392;9.758;2023-06-14T10:06:47;4.80;;;2.47;;
60464;SDS011;46314;52.392;9.758;2023-06-14T10:09:16;3.10;;;2.80;;
60464;SDS011;46314;52.392;9.758;2023-06-14T10:11:42;4.28;;;2.53;;
60464;SDS011;46314;52.392;9.758;2023-06-14T10:14:11;4.25;;;2.28;;
60464;SDS011;46314;52.392;9.758;2023-06-14T10:16:39;3.60;;;2.60;;
60464;SDS011;46314;52.392;9.758;2023-06-14T10:19:16;3.58;;;3.25;;
60464;SDS011;46314;52.392;9.758;2023-06-14T10:21:49;4.53;;;2.95;;
60464;SDS011;46314;52.392;9.758;2023-06-14T10:24:23;3.72;;;2.53;;
60464;SDS011;46314;52.392;9.758;2023-06-14T10:26:57;3.53;;;2.80;;
60464;SDS011;46314;52.392;9.758;2023-06-14T10:29:27;5.43;;;2.65;;
60464;SDS011;46314;52.392;9.758;2023-06-14T10:31:55;4.40;;;2.78;;
60464;SDS011;46314;52.392;9.758;2023-06-14T10:34:23;4.10;;;3.28;;
60464;SDS011;46314;52.392;9.758;2023-06-14T10:37:00;4.63;;;2.55;;
60464;SDS011;46314;52.392;9.758;2023-06-14T10:39:28;4.25;;;2.60;;
60464;SDS011;46314;52.392;9.758;2023-06-14T10:41:55;4.40;;;2.60;;
60464;SDS011;46314;52.392;9.758;2023-06-14T10:44:34;3.28;;;2.78;;
60464;SDS011;46314;52.392;9.758;2023-06-14T10:47:06;5.68;;;3.45;;
60464;SDS011;46314;52.392;9.758;2023-06-14T10:49:40;6.10;;;2.97;;
60464;SDS011;46314;52.392;9.758;2023-06-14T10:52:09;3.70;;;3.10;;
60464;SDS011;46314;52.392;9.758;2023-06-14T10:54:37;3.28;;;2.92;;
60464;SDS011;46314;52.392;9.758;2023-06-14T10:57:05;4.70;;;3.13;;
60464;SDS011;46314;52.392;9.758;2023-06-14T10:59:34;4.30;;;3.20;;
60464;SDS011;46314;52.392;9.758;2023-06-14T11:02:11;5.07;;;3.50;;
60464;SDS011;46314;52.392;9.758;2023-06-14T11:04:51;3.78;;;2.70;;
60464;SDS011;46314;52.392;9.758;2023-06-14T11:10:10;5.32;;;3.33;;
60464;SDS011;46314;52.392;9.758;2023-06-14T11:12:47;4.38;;;2.78;;
60464;SDS011;46314;52.392;9.758;2023-06-14T11:15:16;3.65;;;3.15;;
60464;SDS011;46314;52.392;9.758;2023-06-14T11:17:49;4.85;;;2.90;;
60464;SDS011;46314;52.392;9.758;2023-06-14T11:22:48;6.22;;;3.45;;
60464;SDS011;46314;52.392;9.758;2023-06-14T11:25:15;4.25;;;2.72;;
60464;SDS011;46314;52.392;9.758;2023-06-14T11:27:42;3.30;;;2.60;;
60464;SDS011;46314;52.392;9.758;2023-06-14T11:30:09;3.45;;;3.10;;
60464;SDS011;46314;52.392;9.758;2023-06-14T11:32:38;4.35;;;3.55;;
60464;SDS011;46314;52.392;9.758;2023-06-14T11:35:05;5.30;;;3.38;;
60464;SDS011;46314;52.392;9.758;2023-06-14T11:37:33;4.80;;;3.08;;
60464;SDS011;46314;52.392;9.758;2023-06-14T11:40:00;5.10;;;3.22;;
60464;SDS011;46314;52.392;9.758;2023-06-14T11:42:27;4.07;;;2.95;;
60464;SDS011;46314;52.392;9.758;2023-06-14T11:44:53;3.35;;;3.05;;
60464;SDS011;46314;52.392;9.758;2023-06-14T11:47:34;3.67;;;2.83;;
60464;SDS011;46314;52.392;9.758;2023-06-14T11:50:03;4.80;;;3.30;;
60464;SDS011;46314;52.392;9.758;2023-06-14T11:52:31;4.88;;;3.53;;
60464;SDS011;46314;52.392;9.758;2023-06-14T11:54:58;4.55;;;3.45;;
60464;SDS011;46314;52.392;9.758;2023-06-14T11:57:25;3.80;;;3.15;;
60464;SDS011;46314;52.392;9.758;2023-06-14T11:59:52;4.43;;;3.33;;
60464;SDS011;46314;52.392;9.758;2023-06-14T12:02:21;5.13;;;3.25;;
60464;SDS011;46314;52.392;9.758;2023-06-14T12:04:50;5.35;;;3.28;;
60464;SDS011;46314;52.392;9.758;2023-06-14T12:07:19;8.27;;;3.13;;
60464;SDS011;46314;52.392;9.758;2023-06-14T12:10:03;3.85;;;3.45;;
60464;SDS011;46314;52.392;9.758;2023-06-14T12:12:30;5.18;;;3.50;;
60464;SDS011;46314;52.392;9.758;2023-06-14T12:14:56;4.80;;;3.83;;
60464;SDS011;46314;52.392;9.758;2023-06-14T12:17:23;5.95;;;3.45;;
60464;SDS011;46314;52.392;9.758;2023-06-14T12:19:49;5.07;;;3.55;;
60464;SDS011;46314;52.392;9.758;2023-06-14T12:22:16;5.85;;;3.65;;
60464;SDS011;46314;52.392;9.758;2023-06-14T12:24:44;4.45;;;3.30;;
60464;SDS011;46314;52.392;9.758;2023-06-14T12:27:11;5.60;;;3.47;;
60464;SDS011;46314;52.392;9.758;2023-06-14T12:29:38;8.75;;;3.75;;
60464;SDS011;46314;52.392;9.758;2023-06-14T12:32:05;9.57;;;3.47;;
60464;SDS011;46314;52.392;9.758;2023-06-14T12:34:32;7.43;;;3.90;;
60464;SDS011;46314;52.392;9.758;2023-06-14T12:36:59;7.50;;;3.78;;
60464;SDS011;46314;52.392;9.758;2023-06-14T12:39:25;4.78;;;3.60;;
60464;SDS011;46314;52.392;9.758;2023-06-14T12:41:53;5.40;;;3.90;;
60464;SDS011;46314;52.392;9.758;2023-06-14T12:44:20;4.25;;;3.85;;
60464;SDS011;46314;52.392;9.758;2023-06-14T12:46:46;5.28;;;3.72;;
60464;SDS011;46314;52.392;9.758;2023-06-14T12:49:13;5.13;;;3.70;;
60464;SDS011;46314;52.392;9.758;2023-06-14T12:51:40;5.88;;;4.15;;
60464;SDS011;46314;52.392;9.758;2023-06-14T12:54:06;7.03;;;3.88;;
60464;SDS011;46314;52.392;9.758;2023-06-14T12:56:33;7.15;;;3.58;;
60464;SDS011;46314;52.392;9.758;2023-06-14T12:59:01;5.35;;;4.43;;
60464;SDS011;46314;52.392;9.758;2023-06-14T13:01:27;5.43;;;4.07;;
60464;SDS011;46314;52.392;9.758;2023-06-14T13:03:54;6.18;;;4.05;;
60464;SDS011;46314;52.392;9.758;2023-06-14T13:06:21;5.25;;;3.88;;
60464;SDS011;46314;52.392;9.758;2023-06-14T13:08:47;5.78;;;3.83;;
60464;SDS011;46314;52.392;9.758;2023-06-14T13:11:14;8.93;;;3.72;;
60464;SDS011;46314;52.392;9.758;2023-06-14T13:13:40;5.32;;;3.97;;
60464;SDS011;46314;52.392;9.758;2023-06-14T13:16:08;7.63;;;4.40;;
60464;SDS011;46314;52.392;9.758;2023-06-14T13:18:35;8.18;;;4.10;;
60464;SDS011;46314;52.392;9.758;2023-06-14T13:21:01;4.13;;;3.72;;
60464;SDS011;46314;52.392;9.758;2023-06-14T13:23:28;5.68;;;3.30;;
60464;SDS011;46314;52.392;9.758;2023-06-14T13:25:54;6.13;;;4.13;;
60464;SDS011;46314;52.392;9.758;2023-06-14T13:28:21;4.95;;;3.22;;
60464;SDS011;46314;52.392;9.758;2023-06-14T13:30:48;6.13;;;4.05;;
60464;SDS011;46314;52.392;9.758;2023-06-14T13:33:16;6.47;;;4.03;;
60464;SDS011;46314;52.392;9.758;2023-06-14T13:35:42;4.82;;;4.43;;
60464;SDS011;46314;52.392;9.758;2023-06-14T13:38:09;7.28;;;4.35;;
60464;SDS011;46314;52.392;9.758;2023-06-14T13:40:36;4.50;;;3.75;;
60464;SDS011;46314;52.392;9.758;2023-06-14T13:43:03;7.55;;;4.13;;
60464;SDS011;46314;52.392;9.758;2023-06-14T13:45:29;5.68;;;3.90;;
60464;SDS011;46314;52.392;9.758;2023-06-14T13:47:55;4.45;;;3.97;;
60464;SDS011;46314;52.392;9.758;2023-06-14T13:50:24;13.30;;;4.25;;
60464;SDS011;46314;52.392;9.758;2023-06-14T13:52:50;7.78;;;3.60;;
60464;SDS011;46314;52.392;9.758;2023-06-14T13:55:16;6.43;;;3.38;;
60464;SDS011;46314;52.392;9.758;2023-06-14T13:57:43;6.32;;;3.85;;
60464;SDS011;46314;52.392;9.758;2023-06-14T14:00:10;9.57;;;4.75;;
60464;SDS011;46314;52.392;9.758;2023-06-14T14:02:37;9.05;;;4.03;;
60464;SDS011;46314;52.392;9.758;2023-06-14T14:05:04;7.70;;;3.92;;
60464;SDS011;46314;52.392;9.758;2023-06-14T14:07:32;5.65;;;3.65;;
60464;SDS011;46314;52.392;9.758;2023-06-14T14:09:59;7.38;;;4.13;;
60464;SDS011;46314;52.392;9.758;2023-06-14T14:12:25;5.18;;;3.63;;
60464;SDS011;46314;52.392;9.758;2023-06-14T14:14:51;6.63;;;4.00;;
60464;SDS011;46314;52.392;9.758;2023-06-14T14:17:18;7.35;;;3.92;;
60464;SDS011;46314;52.392;9.758;2023-06-14T14:19:44;7.55;;;3.67;;
60464;SDS011;46314;52.392;9.758;2023-06-14T14:22:11;5.70;;;4.00;;
60464;SDS011;46314;52.392;9.758;2023-06-14T14:24:39;5.18;;;3.33;;
60464;SDS011;46314;52.392;9.758;2023-06-14T14:27:05;8.00;;;4.53;;
60464;SDS011;46314;52.392;9.758;2023-06-14T14:29:32;5.60;;;4.00;;
60464;SDS011;46314;52.392;9.758;2023-06-14T14:31:58;5.45;;;3.97;;
60464;SDS011;46314;52.392;9.758;2023-06-14T14:34:25;5.57;;;3.80;;
60464;SDS011;46314;52.392;9.758;2023-06-14T14:36:52;7.45;;;4.35;;
60464;SDS011;46314;52.392;9.758;2023-06-14T14:39:18;5.80;;;4.20;;
60464;SDS011;46314;52.392;9.758;2023-06-14T14:41:46;5.68;;;3.85;;
60464;SDS011;46314;52.392;9.758;2023-06-14T14:44:12;8.48;;;4.15;;
60464;SDS011;46314;52.392;9.758;2023-06-14T14:46:39;8.68;;;4.05;;
60464;SDS011;46314;52.392;9.758;2023-06-14T14:49:05;6.10;;;4.00;;
60464;SDS011;46314;52.392;9.758;2023-06-14T14:51:32;5.53;;;4.07;;
60464;SDS011;46314;52.392;9.758;2023-06-14T14:53:58;6.00;;;3.97;;